createdAt,value
2019-02-26T00:01:28.598Z,1.07
2019-02-26T00:03:55.113Z,1.67
2019-02-26T00:06:24.883Z,1.13
2019-02-26T00:08:53.291Z,0.90
2019-02-26T00:11:18.463Z,1.03
2019-02-26T00:13:44.882Z,1.20
2019-02-26T00:16:13.419Z,1.40
2019-02-26T00:18:39.660Z,1.70
2019-02-26T00:21:06.225Z,1.00
2019-02-26T00:23:32.789Z,1.47
2019-02-26T00:25:59.202Z,1.53
2019-02-26T00:28:25.648Z,1.10
2019-02-26T00:30:52.207Z,0.90
2019-02-26T00:33:21.539Z,1.30
2019-02-26T00:35:48.196Z,1.23
2019-02-26T00:38:17.274Z,1.13
2019-02-26T00:40:43.433Z,1.40
2019-02-26T00:43:09.847Z,1.00
2019-02-26T00:45:38.894Z,1.67
2019-02-26T00:48:04.709Z,1.47
2019-02-26T00:50:32.703Z,0.97
2019-02-26T00:53:01.468Z,1.10
2019-02-26T00:55:29.851Z,1.63
2019-02-26T00:57:56.982Z,1.40
2019-02-26T01:00:26.325Z,0.90
2019-02-26T01:02:52.768Z,1.20
2019-02-26T01:05:19.403Z,1.30
2019-02-26T01:07:47.440Z,1.17
2019-02-26T01:10:16.131Z,1.10
2019-02-26T01:12:42.897Z,1.97
2019-02-26T01:15:17.336Z,1.13
2019-02-26T01:17:43.743Z,1.20
2019-02-26T01:20:12.118Z,1.10
2019-02-26T01:22:40.320Z,1.13
2019-02-26T01:25:10.113Z,1.30
2019-02-26T01:27:36.378Z,0.90
2019-02-26T01:30:05.779Z,1.07
2019-02-26T01:32:32.301Z,1.40
2019-02-26T01:35:00.738Z,1.47
2019-02-26T01:37:27.859Z,0.93
2019-02-26T01:39:55.384Z,1.23
2019-02-26T01:42:24.871Z,1.10
2019-02-26T01:44:51.173Z,1.17
2019-02-26T01:47:19.517Z,1.20
2019-02-26T01:49:46.444Z,1.00
2019-02-26T01:52:15.104Z,1.20
2019-02-26T01:54:42.325Z,1.17
2019-02-26T01:57:09.293Z,1.23
2019-02-26T01:59:35.802Z,1.00
2019-02-26T02:02:02.384Z,1.40
2019-02-26T02:04:28.777Z,1.77
2019-02-26T02:06:57.096Z,1.27
2019-02-26T02:09:25.088Z,1.23
2019-02-26T02:11:51.772Z,1.20
2019-02-26T02:14:18.291Z,1.17
2019-02-26T02:16:44.820Z,1.33
2019-02-26T02:19:15.608Z,1.30
2019-02-26T02:21:39.699Z,1.97
2019-02-26T02:24:10.576Z,1.00
2019-02-26T02:26:35.069Z,1.00
2019-02-26T02:29:01.535Z,1.60
2019-02-26T02:31:31.195Z,1.07
2019-02-26T02:33:56.384Z,1.10
2019-02-26T02:36:25.731Z,1.57
2019-02-26T02:38:51.338Z,1.23
2019-02-26T02:41:17.844Z,1.47
2019-02-26T02:43:44.361Z,1.57
2019-02-26T02:46:10.871Z,1.00
2019-02-26T02:48:37.494Z,1.00
2019-02-26T02:51:05.478Z,1.27
2019-02-26T02:53:32.558Z,1.07
2019-02-26T02:55:59.064Z,0.93
2019-02-26T02:58:26.070Z,1.20
2019-02-26T03:00:54.208Z,1.40
2019-02-26T03:03:21.334Z,1.43
2019-02-26T03:05:47.825Z,1.67
2019-02-26T03:08:16.355Z,1.00
2019-02-26T03:10:44.931Z,1.50
2019-02-26T03:13:10.745Z,0.90
2019-02-26T03:15:37.329Z,1.47
2019-02-26T03:18:04.552Z,1.00
2019-02-26T03:20:39.241Z,1.07
2019-02-26T03:23:00.689Z,0.80
2019-02-26T03:25:29.066Z,1.47
2019-02-26T03:27:55.496Z,1.37
2019-02-26T03:30:32.065Z,1.67
2019-02-26T03:32:52.044Z,1.00
2019-02-26T03:35:19.695Z,1.00
2019-02-26T03:37:48.775Z,1.30
2019-02-26T03:40:15.339Z,1.30
2019-02-26T03:42:43.452Z,0.90
2019-02-26T03:45:12.732Z,1.40
2019-02-26T03:47:40.625Z,0.93
2019-02-26T03:50:10.066Z,1.33
2019-02-26T03:52:36.586Z,0.90
2019-02-26T03:55:08.196Z,1.00
2019-02-26T03:57:33.547Z,1.00
2019-02-26T04:00:00.104Z,1.10
2019-02-26T04:02:26.702Z,1.10
2019-02-26T04:04:54.400Z,1.33
2019-02-26T04:07:22.859Z,1.10
2019-02-26T04:09:53.170Z,1.30
2019-02-26T04:12:18.943Z,1.20
2019-02-26T04:14:46.471Z,1.40
2019-02-26T04:17:13.096Z,1.10
2019-02-26T04:19:43.542Z,1.37
2019-02-26T04:22:24.109Z,1.27
2019-02-26T04:24:52.943Z,1.00
2019-02-26T04:27:45.070Z,1.20
2019-02-26T04:30:19.046Z,1.10
2019-02-26T04:33:09.198Z,1.23
2019-02-26T04:35:39.118Z,1.40
2019-02-26T04:38:26.720Z,1.20
2019-02-26T04:41:00.504Z,1.07
2019-02-26T04:43:38.753Z,1.33
2019-02-26T04:46:15.215Z,1.20
2019-02-26T04:48:42.649Z,1.20
2019-02-26T04:51:09.175Z,1.57
2019-02-26T04:53:36.450Z,1.47
2019-02-26T04:56:05.815Z,1.47
2019-02-26T04:58:31.357Z,1.67
2019-02-26T05:00:57.844Z,1.20
2019-02-26T05:03:24.119Z,1.50
2019-02-26T05:05:53.716Z,1.27
2019-02-26T05:08:18.836Z,1.23
2019-02-26T05:10:46.529Z,1.37
2019-02-26T05:13:13.567Z,1.40
2019-02-26T05:15:39.941Z,1.07
2019-02-26T05:18:06.478Z,1.97
2019-02-26T05:20:34.108Z,1.70
2019-02-26T05:23:03.099Z,1.30
2019-02-26T05:25:31.500Z,2.00
2019-02-26T05:27:57.795Z,1.40
2019-02-26T05:30:24.394Z,1.90
2019-02-26T05:32:51.925Z,2.00
2019-02-26T05:35:20.900Z,2.03
2019-02-26T05:37:47.311Z,2.13
2019-02-26T05:40:16.414Z,1.70
2019-02-26T05:42:42.269Z,1.87
2019-02-26T05:45:09.494Z,4.57
2019-02-26T05:47:36.206Z,1.40
2019-02-26T05:50:06.938Z,1.43
2019-02-26T05:52:35.649Z,1.20
2019-02-26T05:55:01.641Z,1.47
2019-02-26T05:57:32.688Z,2.07
2019-02-26T05:59:56.614Z,1.60
2019-02-26T06:02:24.623Z,2.57
2019-02-26T06:04:51.205Z,1.53
2019-02-26T06:07:21.671Z,2.37
2019-02-26T06:09:48.318Z,1.50
2019-02-26T06:12:20.421Z,2.10
2019-02-26T06:14:47.030Z,1.80
2019-02-26T06:17:15.545Z,1.50
2019-02-26T06:19:44.975Z,2.37
2019-02-26T06:22:14.525Z,1.57
2019-02-26T06:24:40.023Z,2.10
2019-02-26T06:27:08.836Z,2.30
2019-02-26T06:29:37.277Z,1.53
2019-02-26T06:32:09.534Z,1.30
2019-02-26T06:34:37.473Z,1.93
2019-02-26T06:37:20.698Z,2.40
2019-02-26T06:39:50.539Z,1.53
2019-02-26T06:42:15.802Z,2.00
2019-02-26T06:44:43.824Z,1.90
2019-02-26T06:47:10.604Z,2.03
2019-02-26T06:49:37.054Z,1.93
2019-02-26T06:52:03.563Z,1.90
2019-02-26T06:54:31.758Z,2.03
2019-02-26T06:56:58.800Z,2.37
2019-02-26T06:59:31.857Z,2.30
2019-02-26T07:01:58.020Z,1.83
2019-02-26T07:04:26.988Z,1.70
2019-02-26T07:06:55.172Z,2.57
2019-02-26T07:09:21.062Z,2.30
2019-02-26T07:11:47.565Z,1.83
2019-02-26T07:14:14.063Z,1.50
2019-02-26T07:16:40.543Z,1.60
2019-02-26T07:19:09.121Z,2.83
2019-02-26T07:21:35.553Z,2.83
2019-02-26T07:24:03.474Z,2.47
2019-02-26T07:26:29.969Z,2.33
2019-02-26T07:28:57.858Z,1.83
2019-02-26T07:31:26.067Z,1.93
2019-02-26T07:33:53.402Z,2.00
2019-02-26T07:36:23.166Z,2.40
2019-02-26T07:38:52.025Z,3.13
2019-02-26T07:41:18.846Z,2.17
2019-02-26T07:43:46.855Z,2.00
2019-02-26T07:46:15.395Z,2.10
2019-02-26T07:48:42.933Z,2.60
2019-02-26T07:51:09.560Z,2.23
2019-02-26T07:53:36.038Z,2.27
2019-02-26T07:56:04.549Z,2.30
2019-02-26T07:58:31.446Z,2.10
2019-02-26T08:00:59.115Z,2.30
2019-02-26T08:03:26.791Z,3.37
2019-02-26T08:05:53.990Z,2.87
2019-02-26T08:08:21.013Z,2.90
2019-02-26T08:10:48.909Z,1.93
2019-02-26T08:13:16.105Z,2.90
2019-02-26T08:15:42.612Z,2.60
2019-02-26T08:18:09.320Z,2.60
2019-02-26T08:20:37.578Z,2.33
2019-02-26T08:23:04.696Z,2.60
2019-02-26T08:25:31.265Z,2.00
2019-02-26T08:27:59.357Z,2.37
2019-02-26T08:30:26.230Z,1.83
2019-02-26T08:32:54.296Z,2.10
2019-02-26T08:35:21.228Z,2.97
2019-02-26T08:37:47.606Z,1.73
2019-02-26T08:40:14.121Z,3.03
2019-02-26T08:42:40.669Z,3.00
2019-02-26T08:45:12.294Z,2.20
2019-02-26T08:47:38.546Z,2.80
2019-02-26T08:50:10.025Z,2.40
2019-02-26T08:52:35.734Z,2.60
2019-02-26T08:55:03.348Z,2.57
2019-02-26T08:57:29.790Z,2.00
2019-02-26T08:59:56.185Z,2.67
2019-02-26T09:02:22.784Z,2.70
2019-02-26T09:04:49.319Z,1.90
2019-02-26T09:07:16.427Z,2.03
2019-02-26T09:09:45.145Z,2.40
2019-02-26T09:12:12.103Z,2.63
2019-02-26T09:14:40.313Z,3.43
2019-02-26T09:17:07.119Z,1.90
2019-02-26T09:19:35.480Z,2.20
2019-02-26T09:22:01.941Z,2.50
2019-02-26T09:24:28.541Z,3.33
2019-02-26T09:26:57.391Z,2.67
2019-02-26T09:29:23.355Z,2.73
2019-02-26T09:31:49.808Z,3.80
2019-02-26T09:34:16.181Z,3.63
2019-02-26T09:36:42.560Z,2.77
2019-02-26T09:39:10.657Z,3.10
2019-02-26T09:41:38.542Z,2.97
2019-02-26T09:44:06.800Z,3.73
2019-02-26T09:46:36.464Z,2.83
2019-02-26T09:49:03.107Z,2.93
2019-02-26T09:51:32.878Z,3.40
2019-02-26T09:53:59.234Z,3.63
2019-02-26T09:56:25.597Z,2.90
2019-02-26T09:58:52.057Z,3.20
2019-02-26T10:01:18.547Z,3.37
2019-02-26T10:03:44.945Z,5.77
2019-02-26T10:06:13.592Z,4.10
2019-02-26T10:08:39.672Z,3.17
2019-02-26T10:11:06.070Z,2.53
2019-02-26T10:13:32.720Z,2.30
2019-02-26T10:16:04.611Z,3.43
2019-02-26T10:18:31.021Z,2.90
2019-02-26T10:20:58.574Z,2.80
2019-02-26T10:23:26.815Z,3.00
2019-02-26T10:25:57.492Z,2.93
2019-02-26T10:28:22.296Z,3.47
2019-02-26T10:30:48.910Z,2.80
2019-02-26T10:33:17.411Z,2.23
2019-02-26T10:35:45.564Z,2.73
2019-02-26T10:38:11.847Z,3.00
2019-02-26T10:40:50.609Z,2.70
2019-02-26T10:43:06.608Z,2.87
2019-02-26T10:45:36.201Z,4.77
2019-02-26T10:48:01.792Z,4.03
2019-02-26T10:50:31.908Z,3.70
2019-02-26T10:53:06.764Z,3.60
2019-02-26T10:55:33.423Z,3.30
2019-02-26T10:57:58.363Z,4.77
2019-02-26T11:00:31.074Z,3.43
2019-02-26T11:02:56.484Z,3.57
2019-02-26T11:05:26.165Z,2.73
2019-02-26T11:07:53.204Z,3.03
2019-02-26T11:10:22.710Z,2.77
2019-02-26T11:12:50.535Z,3.43
2019-02-26T11:15:18.214Z,4.10
2019-02-26T11:17:45.759Z,2.70
2019-02-26T11:20:14.338Z,3.70
2019-02-26T11:22:42.245Z,3.30
2019-02-26T11:25:13.394Z,3.47
2019-02-26T11:27:43.491Z,2.33
2019-02-26T11:30:17.610Z,4.67
2019-02-26T11:32:43.943Z,3.57
2019-02-26T11:35:14.686Z,4.00
2019-02-26T11:37:44.872Z,3.77
2019-02-26T11:40:17.304Z,2.80
2019-02-26T11:42:44.527Z,2.97
2019-02-26T11:45:16.629Z,3.93
2019-02-26T11:47:43.868Z,3.13
2019-02-26T11:50:15.325Z,2.40
2019-02-26T11:52:41.780Z,3.00
2019-02-26T11:55:11.258Z,1.97
2019-02-26T11:57:39.835Z,1.90
2019-02-26T12:00:17.736Z,2.20
2019-02-26T12:02:43.562Z,2.30
2019-02-26T12:05:10.766Z,3.37
2019-02-26T12:07:37.431Z,2.80
2019-02-26T12:10:10.361Z,3.00
2019-02-26T12:12:36.829Z,3.20
2019-02-26T12:15:09.396Z,4.07
2019-02-26T12:17:37.325Z,2.43
2019-02-26T12:20:05.959Z,2.73
2019-02-26T12:22:32.454Z,2.77
2019-02-26T12:25:00.024Z,3.80
2019-02-26T12:27:27.125Z,3.13
2019-02-26T12:29:54.595Z,5.27
2019-02-26T12:32:22.324Z,3.13
2019-02-26T12:34:51.434Z,3.80
2019-02-26T12:37:17.778Z,3.70
2019-02-26T12:39:46.979Z,2.87
2019-02-26T12:42:13.960Z,3.27
2019-02-26T12:44:44.827Z,3.73
2019-02-26T12:47:11.512Z,3.30
2019-02-26T12:49:39.134Z,3.87
2019-02-26T12:52:06.171Z,2.27
2019-02-26T12:57:04.057Z,2.63
2019-02-26T12:59:29.286Z,4.00
2019-02-26T13:01:56.119Z,3.20
2019-02-26T13:04:24.992Z,3.57
2019-02-26T13:06:52.017Z,5.33
2019-02-26T13:09:18.712Z,3.90
2019-02-26T13:12:00.574Z,4.50
2019-02-26T13:14:13.271Z,2.83
2019-02-26T13:16:39.892Z,2.30
2019-02-26T13:19:06.511Z,2.50
2019-02-26T13:21:33.045Z,1.93
2019-02-26T13:24:11.434Z,3.37
2019-02-26T13:26:27.936Z,2.70
2019-02-26T13:28:56.284Z,3.43
2019-02-26T13:31:22.955Z,3.30
2019-02-26T13:33:49.591Z,3.07
2019-02-26T13:36:16.514Z,2.40
2019-02-26T13:38:45.922Z,2.63
2019-02-26T13:41:28.943Z,3.00
2019-02-26T13:43:39.981Z,3.50
2019-02-26T13:46:06.571Z,3.93
2019-02-26T13:48:33.181Z,6.33
2019-02-26T13:50:59.677Z,4.43
2019-02-26T13:53:26.130Z,3.10
2019-02-26T13:55:52.632Z,2.73
2019-02-26T13:58:19.207Z,3.30
2019-02-26T14:00:45.726Z,3.53
2019-02-26T14:03:12.508Z,3.77
2019-02-26T14:05:40.945Z,3.37
2019-02-26T14:08:07.426Z,2.57
2019-02-26T14:10:33.918Z,2.80
2019-02-26T14:13:00.434Z,2.47
2019-02-26T14:15:27.839Z,1.97
2019-02-26T14:17:54.358Z,2.70
2019-02-26T14:20:21.325Z,4.80
2019-02-26T14:22:47.981Z,3.33
2019-02-26T14:25:14.649Z,3.23
2019-02-26T14:27:41.264Z,2.13
2019-02-26T14:30:16.100Z,3.00
2019-02-26T14:32:42.678Z,3.63
2019-02-26T14:35:10.964Z,2.40
2019-02-26T14:37:37.352Z,3.50
2019-02-26T14:40:13.585Z,4.20
2019-02-26T14:42:40.078Z,5.07
2019-02-26T14:45:17.178Z,4.47
2019-02-26T14:47:43.764Z,5.87
2019-02-26T14:50:15.346Z,3.53
2019-02-26T14:52:42.011Z,3.30
2019-02-26T14:55:10.991Z,4.17
2019-02-26T14:57:37.551Z,3.57
2019-02-26T15:00:24.196Z,5.97
2019-02-26T15:02:50.698Z,7.30
2019-02-26T15:05:17.410Z,3.70
2019-02-26T15:07:43.950Z,4.93
2019-02-26T15:10:11.209Z,7.10
2019-02-26T15:12:37.682Z,3.27
2019-02-26T15:15:07.484Z,3.83
2019-02-26T15:17:34.107Z,4.73
2019-02-26T15:20:00.601Z,4.97
2019-02-26T15:22:27.112Z,13.00
2019-02-26T15:24:53.620Z,3.80
2019-02-26T15:27:20.011Z,4.50
2019-02-26T15:29:46.546Z,3.43
2019-02-26T15:32:12.939Z,4.57
2019-02-26T15:34:39.582Z,4.53
2019-02-26T15:37:06.103Z,3.43
2019-02-26T15:39:32.696Z,4.17
2019-02-26T15:41:59.281Z,4.10
2019-02-26T15:44:26.167Z,4.27
2019-02-26T15:46:54.227Z,4.67
2019-02-26T15:49:20.784Z,3.50
2019-02-26T15:51:48.776Z,4.00
2019-02-26T15:54:15.587Z,5.10
2019-02-26T15:56:42.103Z,4.30
2019-02-26T15:59:08.582Z,4.30
2019-02-26T16:01:35.135Z,5.83
2019-02-26T16:04:01.719Z,7.27
2019-02-26T16:06:28.261Z,8.33
2019-02-26T16:08:54.626Z,8.33
2019-02-26T16:11:21.007Z,6.03
2019-02-26T16:13:47.574Z,5.40
2019-02-26T16:16:14.099Z,7.00
2019-02-26T16:18:40.707Z,5.50
2019-02-26T16:21:07.009Z,7.57
2019-02-26T16:23:33.743Z,7.20
2019-02-26T16:26:00.732Z,7.60
2019-02-26T16:28:27.380Z,7.77
2019-02-26T16:30:55.986Z,4.87
2019-02-26T16:33:23.101Z,5.07
2019-02-26T16:35:49.597Z,4.97
2019-02-26T16:38:18.021Z,10.17
2019-02-26T16:40:44.778Z,7.57
2019-02-26T16:43:11.382Z,4.97
2019-02-26T16:45:37.906Z,5.10
2019-02-26T16:48:04.431Z,3.77
2019-02-26T16:50:31.016Z,5.07
2019-02-26T16:52:57.964Z,4.33
2019-02-26T16:55:25.966Z,4.63
2019-02-26T16:57:52.487Z,4.40
2019-02-26T17:00:27.047Z,3.60
2019-02-26T17:02:53.868Z,3.60
2019-02-26T17:05:20.476Z,4.77
2019-02-26T17:07:46.881Z,4.33
2019-02-26T17:10:17.922Z,4.23
2019-02-26T17:12:46.329Z,5.43
2019-02-26T17:15:17.789Z,5.07
2019-02-26T17:17:44.332Z,4.37
2019-02-26T17:20:10.987Z,3.50
2019-02-26T17:22:38.397Z,4.63
2019-02-26T17:25:07.034Z,4.27
2019-02-26T17:27:36.597Z,5.80
2019-02-26T17:30:06.805Z,4.07
2019-02-26T17:32:35.713Z,4.30
2019-02-26T17:35:01.676Z,3.37
2019-02-26T17:37:28.163Z,3.10
2019-02-26T17:39:54.849Z,3.27
2019-02-26T17:42:21.243Z,3.73
2019-02-26T17:44:47.872Z,3.97
2019-02-26T17:47:14.240Z,4.00
2019-02-26T17:49:41.073Z,3.53
2019-02-26T17:52:07.893Z,4.57
2019-02-26T17:54:34.730Z,5.80
2019-02-26T17:57:02.606Z,6.77
2019-02-26T17:59:29.570Z,5.50
2019-02-26T18:01:56.245Z,4.37
2019-02-26T18:04:23.489Z,3.67
2019-02-26T18:06:49.913Z,4.57
2019-02-26T18:09:16.416Z,3.80
2019-02-26T18:11:43.709Z,4.00
2019-02-26T18:14:10.269Z,3.50
2019-02-26T18:16:36.839Z,4.03
2019-02-26T18:19:03.301Z,3.77
2019-02-26T18:21:29.931Z,3.70
2019-02-26T18:23:56.376Z,4.17
2019-02-26T18:26:22.764Z,4.00
2019-02-26T18:28:49.162Z,3.33
2019-02-26T18:31:16.508Z,2.83
2019-02-26T18:33:43.124Z,3.63
2019-02-26T18:36:09.795Z,4.00
2019-02-26T18:38:36.319Z,4.50
2019-02-26T18:41:02.800Z,6.00
2019-02-26T18:43:29.617Z,5.67
2019-02-26T18:45:56.102Z,5.80
2019-02-26T18:48:22.596Z,5.03
2019-02-26T18:50:49.117Z,5.90
2019-02-26T18:53:15.509Z,6.90
2019-02-26T18:55:43.816Z,5.90
2019-02-26T18:58:10.393Z,6.47
2019-02-26T19:00:36.930Z,5.80
2019-02-26T19:03:04.143Z,5.77
2019-02-26T19:05:30.619Z,6.27
2019-02-26T19:07:57.225Z,5.97
2019-02-26T19:10:23.704Z,14.00
2019-02-26T19:12:50.096Z,14.30
2019-02-26T19:15:24.456Z,5.87
2019-02-26T19:17:52.644Z,4.60
2019-02-26T19:20:21.726Z,4.23
2019-02-26T19:22:48.370Z,3.60
2019-02-26T19:25:14.977Z,3.67
2019-02-26T19:27:41.445Z,4.57
2019-02-26T19:30:13.334Z,3.80
2019-02-26T19:32:39.932Z,4.20
2019-02-26T19:35:12.287Z,4.60
2019-02-26T19:37:36.013Z,3.50
2019-02-26T19:40:05.954Z,4.37
2019-02-26T19:42:32.800Z,4.23
2019-02-26T19:44:59.066Z,4.07
2019-02-26T19:47:25.594Z,3.13
2019-02-26T19:49:52.121Z,2.83
2019-02-26T19:52:18.678Z,3.80
2019-02-26T19:54:45.292Z,2.97
2019-02-26T19:57:12.346Z,3.60
2019-02-26T19:59:38.909Z,4.27
2019-02-26T20:02:05.407Z,4.20
2019-02-26T20:04:31.778Z,4.20
2019-02-26T20:06:58.666Z,3.40
2019-02-26T20:09:25.543Z,3.57
2019-02-26T20:11:53.580Z,3.43
2019-02-26T20:14:21.718Z,2.90
2019-02-26T20:16:48.092Z,3.47
2019-02-26T20:19:14.661Z,3.33
2019-02-26T20:21:41.136Z,3.63
2019-02-26T20:24:07.624Z,3.33
2019-02-26T20:26:34.172Z,2.93
2019-02-26T20:29:00.950Z,3.07
2019-02-26T20:31:28.902Z,2.80
2019-02-26T20:33:56.336Z,2.40
2019-02-26T20:36:22.749Z,2.90
2019-02-26T20:38:49.294Z,3.40
2019-02-26T20:41:15.776Z,2.63
2019-02-26T20:43:42.383Z,2.53
2019-02-26T20:46:08.904Z,3.10
2019-02-26T20:48:36.864Z,3.47
2019-02-26T20:51:03.591Z,2.97
2019-02-26T20:53:29.968Z,2.40
2019-02-26T20:55:57.727Z,3.43
2019-02-26T20:58:24.720Z,2.93
2019-02-26T21:00:52.238Z,2.60
2019-02-26T21:03:18.760Z,2.77
2019-02-26T21:05:47.638Z,2.43
2019-02-26T21:08:14.110Z,2.93
2019-02-26T21:10:40.511Z,2.87
2019-02-26T21:13:06.907Z,2.50
2019-02-26T21:15:33.374Z,3.27
2019-02-26T21:17:59.984Z,3.10
2019-02-26T21:20:26.207Z,2.77
2019-02-26T21:22:54.946Z,3.07
2019-02-26T21:25:21.127Z,2.40
2019-02-26T21:27:47.482Z,2.50
2019-02-26T21:30:19.442Z,2.50
2019-02-26T21:32:45.878Z,2.17
2019-02-26T21:35:12.255Z,2.80
2019-02-26T21:37:38.702Z,2.83
2019-02-26T21:40:08.294Z,2.70
2019-02-26T21:42:34.879Z,2.10
2019-02-26T21:45:01.380Z,2.90
2019-02-26T21:47:27.778Z,1.83
2019-02-26T21:49:54.062Z,2.63
2019-02-26T21:52:20.528Z,2.13
2019-02-26T21:54:46.975Z,2.50
2019-02-26T21:57:14.596Z,2.33
2019-02-26T21:59:49.647Z,2.23
2019-02-26T22:02:09.178Z,2.10
2019-02-26T22:04:35.651Z,1.90
2019-02-26T22:07:02.223Z,2.63
2019-02-26T22:09:30.166Z,2.93
2019-02-26T22:11:57.151Z,2.30
2019-02-26T22:14:23.515Z,2.20
2019-02-26T22:16:51.406Z,2.67
2019-02-26T22:19:18.235Z,2.00
2019-02-26T22:21:51.737Z,2.27
2019-02-26T22:24:15.632Z,2.33
2019-02-26T22:26:43.004Z,2.07
2019-02-26T22:29:09.496Z,2.67
2019-02-26T22:31:35.986Z,2.07
2019-02-26T22:34:02.532Z,1.80
2019-02-26T22:36:30.798Z,2.60
2019-02-26T22:38:57.202Z,2.37
2019-02-26T22:41:23.673Z,2.20
2019-02-26T22:43:50.239Z,2.00
2019-02-26T22:46:16.619Z,1.90
2019-02-26T22:48:44.564Z,3.10
2019-02-26T22:51:10.992Z,2.00
2019-02-26T22:53:37.503Z,1.87
2019-02-26T22:56:04.102Z,1.60
2019-02-26T22:58:30.620Z,1.83
2019-02-26T23:01:14.220Z,1.50
2019-02-26T23:03:40.752Z,1.83
2019-02-26T23:06:07.338Z,2.50
2019-02-26T23:08:33.946Z,2.00
2019-02-26T23:11:00.614Z,1.80
2019-02-26T23:13:31.522Z,1.40
2019-02-26T23:15:55.866Z,1.50
2019-02-26T23:18:22.458Z,2.40
2019-02-26T23:20:48.966Z,2.13
2019-02-26T23:23:15.469Z,1.50
2019-02-26T23:25:42.137Z,1.57
2019-02-26T23:28:08.532Z,1.90
2019-02-26T23:30:35.130Z,1.70
2019-02-26T23:33:01.580Z,1.70
2019-02-26T23:35:27.970Z,1.70
2019-02-26T23:37:54.559Z,1.60
2019-02-26T23:40:21.059Z,1.93
2019-02-26T23:42:47.744Z,1.80
2019-02-26T23:45:14.933Z,1.73
2019-02-26T23:47:41.909Z,1.90
2019-02-26T23:50:09.293Z,2.60
2019-02-26T23:52:35.796Z,1.80
2019-02-26T23:55:02.726Z,1.87
2019-02-26T23:57:29.195Z,1.70
2019-02-26T23:59:55.675Z,1.67
